Time;durP1;ratioP1;P1;durP2;ratioP2;P2;SDS_P1;SDS_P2;PMS_P1;PMS_P2;Temp;Humidity;BMP_temperature;BMP_pressure;BME280_temperature;BME280_humidity;BME280_pressure;Samples;Min_cycle;Max_cycle;Signal;HPM_P1;HPM_P2
2022/09/14 00:00:35;;;;;;;11.25;10.07;;;22.20;99.90;;;;;;6133041;28;87918;-65
2022/09/14 00:03:37;;;;;;;11.18;10.15;;;22.20;99.90;;;;;;6128540;28;88981;-65
2022/09/14 00:06:41;;;;;;;11.43;10.23;;;22.20;99.90;;;;;;6131008;28;90003;-65
2022/09/14 00:09:44;;;;;;;11.50;10.40;;;22.20;99.90;;;;;;6109586;28;88930;-65
2022/09/14 00:12:46;;;;;;;11.02;10.02;;;22.20;99.90;;;;;;6121894;28;89219;-65
2022/09/14 00:15:48;;;;;;;11.60;10.50;;;22.20;99.90;;;;;;6130214;28;90657;-65
2022/09/14 00:18:55;;;;;;;10.95;9.95;;;22.20;99.90;;;;;;6131052;28;89345;-65
2022/09/14 00:21:59;;;;;;;11.80;10.70;;;22.20;99.90;;;;;;6131517;28;89085;-65
2022/09/14 00:25:01;;;;;;;11.90;10.70;;;22.20;99.90;;;;;;6130909;28;90505;-65
2022/09/14 00:28:03;;;;;;;11.38;10.27;;;22.20;99.90;;;;;;6131334;28;88539;-65
2022/09/14 00:31:06;;;;;;;12.02;10.93;;;22.20;99.90;;;;;;6131142;28;89093;-65
2022/09/14 00:34:11;;;;;;;12.05;10.85;;;22.20;99.90;;;;;;6122953;28;89214;-65
2022/09/14 00:37:15;;;;;;;12.15;10.88;;;22.20;99.90;;;;;;6131026;28;90096;-65
2022/09/14 00:40:17;;;;;;;11.10;10.07;;;22.20;99.90;;;;;;6126523;28;90422;-65
2022/09/14 00:43:19;;;;;;;11.93;10.82;;;22.20;99.90;;;;;;6128025;28;89037;-65
2022/09/14 00:46:21;;;;;;;12.65;11.45;;;22.20;99.90;;;;;;6130975;28;89052;-65
2022/09/14 00:49:27;;;;;;;12.40;11.20;;;22.20;99.90;;;;;;6129849;28;89225;-65
2022/09/14 00:52:33;;;;;;;12.55;11.25;;;22.20;99.90;;;;;;6128453;28;87639;-65
2022/09/14 00:55:35;;;;;;;12.30;11.10;;;22.20;99.90;;;;;;6123070;28;89047;-65
2022/09/14 00:58:38;;;;;;;12.90;11.60;;;22.20;99.90;;;;;;6132867;28;88371;-65
2022/09/14 01:01:40;;;;;;;13.55;11.98;;;22.20;99.90;;;;;;6134737;28;89055;-65
2022/09/14 01:04:43;;;;;;;11.82;10.73;;;22.10;99.90;;;;;;6121710;28;89043;-65
2022/09/14 01:08:00;;;;;;;11.80;10.70;;;22.10;99.90;;;;;;6133755;28;89874;-65
2022/09/14 01:11:23;;;;;;;12.07;10.88;;;22.20;99.90;;;;;;6135085;28;89041;-65
2022/09/14 01:14:32;;;;;;;12.27;11.18;;;22.20;99.90;;;;;;6111409;28;89244;-65
2022/09/14 01:17:42;;;;;;;12.68;11.48;;;22.20;99.90;;;;;;6116890;28;89090;-65
2022/09/14 01:20:50;;;;;;;13.15;11.85;;;22.20;99.90;;;;;;6133905;28;89187;-65
2022/09/14 01:24:01;;;;;;;12.82;11.60;;;22.20;99.90;;;;;;6129991;28;89007;-65
2022/09/14 01:27:26;;;;;;;13.20;11.90;;;22.20;99.90;;;;;;6125886;28;89076;-65
2022/09/14 01:30:31;;;;;;;12.52;11.32;;;22.20;99.90;;;;;;6134730;28;87584;-65
2022/09/14 01:33:39;;;;;;;11.68;10.55;;;22.20;99.90;;;;;;6134010;28;89161;-65
2022/09/14 01:36:45;;;;;;;12.13;10.93;;;22.20;99.90;;;;;;6126060;28;89309;-65
2022/09/14 01:39:52;;;;;;;12.60;11.30;;;22.20;99.90;;;;;;6129547;28;89984;-65
2022/09/14 01:43:00;;;;;;;12.20;10.82;;;22.10;99.90;;;;;;6133727;28;89107;-65
2022/09/14 01:46:07;;;;;;;12.63;11.43;;;22.20;99.90;;;;;;6133308;28;89144;-65
2022/09/14 01:49:14;;;;;;;12.50;11.30;;;22.20;99.90;;;;;;6119946;28;89070;-65
2022/09/14 01:52:21;;;;;;;12.90;11.65;;;22.20;99.90;;;;;;6133783;28;89098;-65
2022/09/14 01:55:27;;;;;;;12.75;11.55;;;22.20;99.90;;;;;;6133567;28;89201;-65
2022/09/14 01:58:37;;;;;;;12.80;11.60;;;22.20;99.90;;;;;;6133267;28;89093;-65
2022/09/14 02:01:44;;;;;;;12.90;11.60;;;22.20;99.90;;;;;;6134508;28;88684;-66
2022/09/14 02:04:49;;;;;;;13.07;11.80;;;22.20;99.90;;;;;;6120127;28;89095;-65
2022/09/14 02:07:51;;;;;;;12.45;11.30;;;22.10;99.90;;;;;;6122770;28;89060;-65
2022/09/14 02:10:53;;;;;;;12.93;11.73;;;22.20;99.90;;;;;;6118702;28;90829;-65
2022/09/14 02:13:57;;;;;;;12.82;11.52;;;22.20;99.90;;;;;;6129739;28;89112;-65
2022/09/14 02:16:59;;;;;;;12.18;11.07;;;22.20;99.90;;;;;;6122672;28;88995;-65
2022/09/14 02:20:05;;;;;;;13.02;11.73;;;22.20;99.90;;;;;;6126689;28;89169;-65
2022/09/14 02:23:07;;;;;;;12.55;11.35;;;22.10;99.90;;;;;;6133188;28;88624;-65
2022/09/14 02:26:10;;;;;;;13.23;11.93;;;22.20;99.90;;;;;;6121056;28;89070;-65
2022/09/14 02:29:14;;;;;;;12.40;11.20;;;22.20;99.90;;;;;;6130864;28;88041;-65
2022/09/14 02:32:26;;;;;;;12.70;11.50;;;22.20;99.90;;;;;;6133123;28;88434;-65
2022/09/14 02:35:34;;;;;;;12.40;11.20;;;22.20;99.90;;;;;;6132922;28;88028;-65
2022/09/14 02:38:42;;;;;;;12.90;11.60;;;22.10;99.90;;;;;;6133125;28;88927;-65
2022/09/14 02:41:50;;;;;;;12.75;11.55;;;22.10;99.90;;;;;;6127809;28;89971;-65
2022/09/14 02:45:02;;;;;;;12.52;11.32;;;22.20;99.90;;;;;;6131251;28;89050;-65
2022/09/14 02:48:13;;;;;;;11.85;10.75;;;22.10;99.90;;;;;;6129432;28;87965;-65
2022/09/14 02:51:25;;;;;;;12.70;11.50;;;22.20;99.90;;;;;;6120165;28;89201;-65
2022/09/14 02:54:33;;;;;;;12.65;11.43;;;22.20;99.90;;;;;;6120135;28;89102;-65
2022/09/14 02:58:00;;;;;;;12.98;11.68;;;22.10;99.90;;;;;;6132055;28;89101;-65
2022/09/14 03:01:04;;;;;;;13.20;11.93;;;22.10;99.90;;;;;;6130044;28;89078;-65
2022/09/14 03:04:06;;;;;;;12.48;11.35;;;22.20;99.90;;;;;;6133403;28;87256;-65
2022/09/14 03:07:08;;;;;;;12.43;11.25;;;22.10;99.90;;;;;;6121631;28;89157;-65
2022/09/14 03:10:10;;;;;;;12.30;11.07;;;22.20;99.90;;;;;;6118069;28;87921;-65
2022/09/14 03:13:12;;;;;;;13.18;11.88;;;22.10;99.90;;;;;;6119409;28;91760;-65
2022/09/14 03:16:17;;;;;;;12.38;11.18;;;22.20;99.90;;;;;;6120455;28;89349;-65
2022/09/14 03:19:19;;;;;;;12.55;11.35;;;22.10;99.90;;;;;;6131335;28;87899;-65
2022/09/14 03:22:21;;;;;;;12.02;10.93;;;22.10;99.90;;;;;;6131110;28;89267;-65
2022/09/14 03:25:23;;;;;;;12.25;11.05;;;22.20;99.90;;;;;;6131990;28;89039;-65
2022/09/14 03:28:25;;;;;;;12.38;11.13;;;22.10;99.90;;;;;;6128349;28;89286;-65
2022/09/14 03:31:28;;;;;;;12.15;11.05;;;22.10;99.90;;;;;;6120678;28;88111;-65
2022/09/14 03:34:30;;;;;;;11.63;10.52;;;22.20;99.90;;;;;;6132808;28;90740;-65
2022/09/14 03:37:36;;;;;;;12.18;10.98;;;22.20;99.90;;;;;;6131771;28;89189;-65
2022/09/14 03:40:39;;;;;;;11.95;10.85;;;22.10;99.90;;;;;;6131545;28;89572;-65
2022/09/14 03:43:42;;;;;;;12.00;10.90;;;22.10;99.90;;;;;;6117972;28;89887;-65
2022/09/14 03:46:45;;;;;;;12.02;10.93;;;22.10;99.90;;;;;;6131813;28;89549;-65
2022/09/14 03:49:47;;;;;;;11.90;10.80;;;22.10;99.90;;;;;;6127013;28;89065;-65
2022/09/14 03:52:49;;;;;;;12.85;11.55;;;22.10;99.90;;;;;;6126526;28;89358;-65
2022/09/14 03:55:51;;;;;;;12.00;10.90;;;22.20;99.90;;;;;;6132265;28;91130;-65
2022/09/14 03:58:53;;;;;;;11.90;10.70;;;22.10;99.90;;;;;;6131737;28;89105;-65
2022/09/14 04:01:56;;;;;;;11.73;10.52;;;22.10;99.90;;;;;;6130305;28;89126;-65
2022/09/14 04:04:58;;;;;;;10.88;9.88;;;22.10;99.90;;;;;;6131010;28;88056;-65
2022/09/14 04:08:00;;;;;;;11.30;10.30;;;22.20;99.90;;;;;;6132165;28;89093;-65
2022/09/14 04:11:08;;;;;;;11.48;10.38;;;22.10;99.90;;;;;;6128900;28;88024;-65
2022/09/14 04:14:10;;;;;;;12.00;10.90;;;22.20;99.90;;;;;;6119431;28;90053;-65
2022/09/14 04:17:13;;;;;;;11.77;10.70;;;22.10;99.90;;;;;;6128519;28;89088;-65
2022/09/14 04:20:17;;;;;;;11.23;10.18;;;22.20;99.90;;;;;;6121779;28;88919;-65
2022/09/14 04:23:19;;;;;;;11.48;10.40;;;22.10;99.90;;;;;;6114606;28;89101;-65
2022/09/14 04:26:22;;;;;;;11.63;10.52;;;22.10;99.90;;;;;;6130153;28;89164;-65
2022/09/14 04:29:24;;;;;;;11.43;10.38;;;22.10;99.90;;;;;;6129463;28;88885;-65
2022/09/14 04:32:28;;;;;;;10.90;9.90;;;22.10;99.90;;;;;;6134436;28;89113;-65
2022/09/14 04:35:30;;;;;;;11.27;10.25;;;22.10;99.90;;;;;;6136889;28;88260;-65
2022/09/14 04:38:33;;;;;;;11.07;10.02;;;22.10;99.90;;;;;;6129279;28;89047;-65
2022/09/14 04:41:35;;;;;;;10.73;9.73;;;22.10;99.90;;;;;;6116576;28;89075;-65
2022/09/14 04:44:37;;;;;;;11.77;10.68;;;22.10;99.90;;;;;;6132751;28;89940;-65
2022/09/14 04:47:40;;;;;;;11.50;10.40;;;22.10;99.90;;;;;;6126214;28;89047;-65
2022/09/14 04:50:42;;;;;;;10.93;9.93;;;22.20;99.90;;;;;;6132720;28;88012;-65
2022/09/14 04:53:46;;;;;;;11.10;10.10;;;22.10;99.90;;;;;;6123440;28;88989;-65
2022/09/14 04:56:48;;;;;;;11.00;10.00;;;22.10;99.90;;;;;;6123984;28;89187;-65
2022/09/14 04:59:50;;;;;;;11.50;10.40;;;22.10;99.90;;;;;;6134546;28;88191;-65
2022/09/14 05:02:53;;;;;;;10.93;9.93;;;22.10;99.90;;;;;;6126869;28;87980;-65
2022/09/14 05:05:55;;;;;;;10.23;9.27;;;22.10;99.90;;;;;;6124774;28;88732;-65
2022/09/14 05:08:58;;;;;;;10.60;9.60;;;22.10;99.90;;;;;;6130014;28;89185;-65
2022/09/14 05:12:00;;;;;;;11.15;9.95;;;22.20;99.90;;;;;;6132804;28;89130;-65
2022/09/14 05:15:03;;;;;;;11.52;10.32;;;22.20;99.90;;;;;;6134737;28;90203;-65
2022/09/14 05:18:06;;;;;;;10.98;9.82;;;22.20;99.90;;;;;;6134024;28;88964;-65
2022/09/14 05:21:10;;;;;;;11.25;10.20;;;22.10;99.90;;;;;;6135168;28;89081;-65
2022/09/14 05:24:13;;;;;;;10.68;9.68;;;22.10;99.90;;;;;;6134973;28;89303;-65
2022/09/14 05:27:15;;;;;;;10.90;9.90;;;22.20;99.90;;;;;;6133697;28;89168;-65
2022/09/14 05:30:17;;;;;;;11.30;10.15;;;22.10;99.90;;;;;;6120657;28;89088;-65
2022/09/14 05:33:21;;;;;;;10.20;9.20;;;22.20;99.90;;;;;;6120573;28;88059;-66
2022/09/14 05:36:24;;;;;;;10.75;9.73;;;22.10;99.90;;;;;;6134375;28;88792;-65
2022/09/14 05:39:26;;;;;;;10.93;9.93;;;22.10;99.90;;;;;;6135241;28;88981;-65
2022/09/14 05:42:28;;;;;;;10.50;9.35;;;22.10;99.90;;;;;;6121120;28;88175;-65
2022/09/14 05:45:30;;;;;;;10.30;9.40;;;22.10;99.90;;;;;;6126367;28;90077;-65
2022/09/14 05:48:34;;;;;;;10.50;9.30;;;22.10;99.90;;;;;;6129288;28;88806;-65
2022/09/14 05:51:37;;;;;;;10.32;9.32;;;22.10;99.90;;;;;;6127827;28;88891;-65
2022/09/14 05:54:39;;;;;;;10.55;9.55;;;22.10;99.90;;;;;;6121306;28;89481;-65
2022/09/14 05:57:41;;;;;;;10.30;9.30;;;22.10;99.90;;;;;;6129345;28;89076;-65
2022/09/14 06:00:43;;;;;;;10.32;9.40;;;22.10;99.90;;;;;;6127728;28;89083;-65
2022/09/14 06:03:47;;;;;;;10.27;9.15;;;22.10;99.90;;;;;;6133948;28;89070;-65
2022/09/14 06:06:49;;;;;;;10.40;9.40;;;22.10;99.90;;;;;;6134374;28;87620;-65
2022/09/14 06:09:51;;;;;;;10.30;9.40;;;22.10;99.90;;;;;;6133913;28;89547;-65
2022/09/14 06:12:53;;;;;;;9.93;8.98;;;22.10;99.90;;;;;;6134511;28;90188;-65
2022/09/14 06:15:56;;;;;;;10.07;9.07;;;22.10;99.90;;;;;;6133293;28;90053;-65
2022/09/14 06:19:00;;;;;;;9.90;9.00;;;22.10;99.90;;;;;;6126522;28;89201;-65
2022/09/14 06:22:02;;;;;;;10.02;9.02;;;22.10;99.90;;;;;;6122896;28;90436;-65
2022/09/14 06:25:04;;;;;;;10.38;9.38;;;22.10;99.90;;;;;;6126885;28;89106;-65
2022/09/14 06:28:06;;;;;;;9.85;8.95;;;22.10;99.90;;;;;;6134452;28;89130;-65
2022/09/14 06:31:11;;;;;;;9.68;8.77;;;22.10;99.90;;;;;;6123383;28;88996;-65
2022/09/14 06:34:14;;;;;;;9.60;8.70;;;22.10;99.90;;;;;;6130670;28;89094;-65
2022/09/14 06:37:16;;;;;;;9.88;8.98;;;22.10;99.90;;;;;;6121969;28;88443;-65
2022/09/14 06:40:18;;;;;;;9.85;8.95;;;22.10;99.90;;;;;;6133651;28;89169;-65
2022/09/14 06:43:21;;;;;;;9.98;9.02;;;22.10;99.90;;;;;;6117561;28;89122;-65
2022/09/14 06:46:24;;;;;;;9.43;8.52;;;22.20;99.90;;;;;;6124253;28;88879;-65
2022/09/14 06:49:28;;;;;;;9.00;8.20;;;22.10;99.90;;;;;;6133164;28;89068;-65
2022/09/14 06:52:30;;;;;;;10.40;9.40;;;22.10;99.90;;;;;;6122954;28;90228;-65
2022/09/14 06:55:32;;;;;;;9.77;8.95;;;22.10;99.90;;;;;;6133645;28;89555;-65
2022/09/14 06:58:35;;;;;;;10.10;9.10;;;22.10;99.90;;;;;;6133030;28;89173;-65
2022/09/14 07:01:37;;;;;;;9.73;8.80;;;22.10;99.90;;;;;;6119313;28;89089;-65
2022/09/14 07:04:41;;;;;;;9.23;8.43;;;22.10;99.90;;;;;;6134367;28;89122;-65
2022/09/14 07:07:43;;;;;;;9.40;8.50;;;22.10;99.90;;;;;;6133068;28;88716;-65
2022/09/14 07:10:55;;;;;;;9.45;8.55;;;22.10;99.90;;;;;;6132218;28;88023;-65
2022/09/14 07:13:57;;;;;;;10.13;8.85;;;22.10;99.90;;;;;;6132784;28;89267;-65
2022/09/14 07:16:59;;;;;;;9.27;8.38;;;22.10;99.90;;;;;;6123610;28;90038;-64
2022/09/14 07:20:03;;;;;;;8.98;8.18;;;22.10;99.90;;;;;;6127498;28;87961;-66
2022/09/14 07:23:05;;;;;;;9.15;8.25;;;22.10;99.90;;;;;;6133700;28;89060;-65
2022/09/14 07:26:09;;;;;;;9.30;8.50;;;22.10;99.90;;;;;;6118536;28;89031;-65
2022/09/14 07:29:13;;;;;;;9.60;8.70;;;22.10;99.90;;;;;;6132848;28;89182;-65
2022/09/14 07:32:15;;;;;;;9.50;8.60;;;22.10;99.90;;;;;;6119764;28;89113;-65
2022/09/14 07:35:19;;;;;;;8.95;8.10;;;22.20;99.90;;;;;;6132528;28;89084;-65
2022/09/14 07:38:21;;;;;;;9.20;8.30;;;22.10;99.90;;;;;;6132017;28;88358;-65
2022/09/14 07:41:25;;;;;;;8.60;7.80;;;22.10;99.90;;;;;;6132300;28;89088;-65
2022/09/14 07:44:27;;;;;;;8.70;7.90;;;22.10;99.90;;;;;;6132273;28;89007;-65
2022/09/14 07:47:29;;;;;;;9.52;8.73;;;22.10;99.90;;;;;;6131636;28;89249;-65
2022/09/14 07:50:33;;;;;;;8.75;7.90;;;22.10;99.90;;;;;;6131747;28;90569;-65
2022/09/14 07:53:37;;;;;;;9.13;8.23;;;22.10;99.90;;;;;;6123746;28;89206;-65
2022/09/14 07:56:40;;;;;;;9.00;8.10;;;22.10;99.90;;;;;;6132831;28;89256;-65
2022/09/14 07:59:42;;;;;;;8.93;8.10;;;22.10;99.90;;;;;;6133087;28;89109;-65
2022/09/14 08:02:44;;;;;;;8.73;7.93;;;22.10;99.90;;;;;;6132021;28;87998;-65
2022/09/14 08:05:47;;;;;;;9.18;8.27;;;22.10;99.90;;;;;;6123144;28;88094;-65
2022/09/14 08:08:51;;;;;;;8.27;7.47;;;22.10;99.90;;;;;;6126393;28;88420;-65
2022/09/14 08:11:53;;;;;;;8.93;8.13;;;22.10;99.90;;;;;;6131164;28;89498;-65
2022/09/14 08:14:55;;;;;;;9.07;8.27;;;22.10;99.90;;;;;;6123649;28;89050;-65
2022/09/14 08:17:57;;;;;;;8.38;7.57;;;22.10;99.90;;;;;;6135172;28;89048;-65
2022/09/14 08:21:05;;;;;;;8.75;7.93;;;22.10;99.90;;;;;;6134811;28;89145;-65
2022/09/14 08:24:07;;;;;;;8.25;7.55;;;22.10;99.90;;;;;;6126185;28;89017;-65
2022/09/14 08:27:10;;;;;;;8.63;7.82;;;22.10;99.90;;;;;;6132309;28;89058;-65
2022/09/14 08:30:13;;;;;;;8.90;8.10;;;22.10;99.90;;;;;;6128024;28;89448;-65
2022/09/14 08:33:15;;;;;;;8.77;7.93;;;22.10;99.90;;;;;;6136296;28;89212;-65
2022/09/14 08:36:21;;;;;;;7.97;7.28;;;22.10;99.90;;;;;;6136856;28;89096;-65
2022/09/14 08:39:23;;;;;;;8.88;8.05;;;22.20;99.90;;;;;;6137178;28;88353;-65
2022/09/14 08:42:25;;;;;;;7.82;7.13;;;22.10;99.90;;;;;;6135916;28;89082;-65
2022/09/14 08:45:27;;;;;;;8.60;7.75;;;22.10;99.90;;;;;;6129179;28;88054;-65
2022/09/14 08:48:34;;;;;;;8.02;7.32;;;22.10;99.90;;;;;;6128456;28;90027;-65
2022/09/14 08:51:38;;;;;;;8.35;7.60;;;22.10;99.90;;;;;;6130033;28;89106;-65
2022/09/14 08:54:40;;;;;;;7.78;7.07;;;22.10;99.90;;;;;;6134617;28;89372;-65
2022/09/14 08:57:46;;;;;;;8.15;7.45;;;22.10;99.90;;;;;;6133975;28;87970;-65
2022/09/14 09:00:54;;;;;;;8.70;7.93;;;22.10;99.90;;;;;;6134018;28;89292;-65
2022/09/14 09:04:16;;;;;;;8.02;7.30;;;22.10;99.90;;;;;;6122890;28;89057;-65
2022/09/14 09:07:26;;;;;;;8.15;7.38;;;22.10;99.90;;;;;;6125949;28;89270;-65
2022/09/14 09:10:30;;;;;;;8.20;7.40;;;22.20;99.90;;;;;;6135086;28;88350;-65
2022/09/14 09:13:36;;;;;;;7.97;7.28;;;22.10;99.90;;;;;;6112281;28;89116;-65
2022/09/14 09:16:38;;;;;;;7.75;7.05;;;22.10;99.90;;;;;;6123549;28;89128;-65
2022/09/14 09:19:51;;;;;;;8.40;7.57;;;22.10;99.90;;;;;;6132069;28;90380;-65
2022/09/14 09:23:06;;;;;;;7.72;7.00;;;22.10;99.90;;;;;;6121502;28;89246;-65
2022/09/14 09:26:15;;;;;;;7.68;7.05;;;22.10;99.90;;;;;;6134205;28;89088;-65
2022/09/14 09:29:18;;;;;;;7.80;7.10;;;22.20;99.90;;;;;;6135677;28;89323;-65
2022/09/14 09:32:23;;;;;;;8.23;7.43;;;22.20;99.90;;;;;;6134561;28;89199;-65
2022/09/14 09:35:26;;;;;;;7.97;7.18;;;22.10;99.90;;;;;;6135775;28;89029;-65
2022/09/14 09:38:29;;;;;;;8.10;7.40;;;22.10;99.90;;;;;;6111457;28;89200;-65
2022/09/14 09:41:41;;;;;;;7.22;6.53;;;22.10;99.90;;;;;;6132700;28;88385;-65
2022/09/14 09:44:58;;;;;;;7.90;7.18;;;22.10;99.90;;;;;;6131976;28;89061;-65
2022/09/14 09:48:09;;;;;;;7.55;6.80;;;22.10;99.90;;;;;;6134267;28;89655;-65
2022/09/14 09:51:13;;;;;;;7.63;6.93;;;22.10;99.90;;;;;;6133354;28;90376;-65
2022/09/14 09:54:26;;;;;;;7.47;6.78;;;22.20;99.90;;;;;;6133208;28;89109;-65
2022/09/14 09:57:30;;;;;;;7.72;7.03;;;22.10;99.90;;;;;;6121338;28;88972;-65
2022/09/14 10:00:33;;;;;;;7.68;6.97;;;22.10;99.90;;;;;;6131394;28;89092;-65
2022/09/14 10:03:36;;;;;;;7.65;6.95;;;22.20;99.90;;;;;;6134299;28;88495;-65
2022/09/14 10:06:43;;;;;;;7.65;6.85;;;22.10;99.90;;;;;;6116982;28;89032;-65
2022/09/14 10:09:58;;;;;;;7.18;6.57;;;22.10;99.90;;;;;;6131381;28;89495;-65
2022/09/14 10:13:00;;;;;;;7.85;7.15;;;22.10;99.90;;;;;;6124691;28;88269;-65
2022/09/14 10:16:07;;;;;;;7.18;6.57;;;22.10;99.90;;;;;;6127397;28;89165;-65
2022/09/14 10:19:14;;;;;;;7.47;6.78;;;22.10;99.90;;;;;;6129606;28;89364;-65
2022/09/14 10:22:20;;;;;;;7.22;6.63;;;22.20;99.90;;;;;;6127241;28;89989;-65
2022/09/14 10:25:26;;;;;;;7.60;6.90;;;22.20;99.90;;;;;;6125195;28;89229;-65
2022/09/14 10:28:31;;;;;;;7.57;6.88;;;22.10;99.90;;;;;;6120365;28;89287;-65
2022/09/14 10:31:36;;;;;;;7.10;6.50;;;22.20;99.90;;;;;;6133673;28;89281;-65
2022/09/14 10:34:37;;;;;;;7.03;6.43;;;22.20;99.90;;;;;;6134319;28;88262;-65
2022/09/14 10:37:49;;;;;;;7.15;6.55;;;22.20;99.90;;;;;;6133140;28;91081;-65
2022/09/14 10:41:04;;;;;;;7.13;6.53;;;22.20;99.90;;;;;;6130266;28;89405;-65
2022/09/14 10:44:20;;;;;;;7.10;6.50;;;22.20;99.90;;;;;;6133562;28;88254;-65
2022/09/14 10:47:41;;;;;;;6.85;6.25;;;22.20;99.90;;;;;;6133250;28;89122;-65
2022/09/14 10:50:54;;;;;;;8.05;7.25;;;22.20;99.90;;;;;;6132964;28;89158;-65
2022/09/14 10:54:02;;;;;;;7.00;6.35;;;22.20;99.90;;;;;;6132171;28;89971;-65
2022/09/14 10:57:13;;;;;;;6.80;6.20;;;22.20;99.90;;;;;;6129967;28;89235;-65
2022/09/14 11:00:18;;;;;;;7.10;6.50;;;22.20;99.90;;;;;;6130041;28;88005;-65
2022/09/14 11:03:36;;;;;;;7.10;6.40;;;22.20;99.90;;;;;;6132880;28;89790;-65
2022/09/14 11:06:52;;;;;;;7.35;6.65;;;22.20;99.90;;;;;;6132655;28;89157;-65
2022/09/14 11:10:01;;;;;;;7.00;6.30;;;22.20;99.90;;;;;;6133083;28;89140;-65
2022/09/14 11:13:37;;;;;;;6.82;6.22;;;22.20;99.90;;;;;;6133133;28;89311;-65
2022/09/14 11:16:57;;;;;;;6.72;6.13;;;22.20;99.90;;;;;;6134330;28;91387;-65
2022/09/14 11:20:10;;;;;;;6.60;6.00;;;22.20;99.90;;;;;;6120573;28;89196;-65
2022/09/14 11:23:26;;;;;;;6.20;5.70;;;22.20;99.90;;;;;;6133878;28;89503;-65
2022/09/14 11:26:32;;;;;;;6.70;6.10;;;22.20;99.90;;;;;;6119598;28;90087;-65
2022/09/14 11:29:40;;;;;;;6.32;5.82;;;22.20;99.90;;;;;;6133468;28;90923;-65
2022/09/14 11:32:47;;;;;;;6.78;6.18;;;22.20;99.90;;;;;;6123060;28;89189;-65
2022/09/14 11:35:54;;;;;;;7.00;6.30;;;22.20;99.90;;;;;;6130260;28;89132;-65
2022/09/14 11:39:01;;;;;;;6.68;6.07;;;22.20;99.90;;;;;;6119366;28;89251;-65
2022/09/14 11:42:07;;;;;;;6.55;5.95;;;22.20;99.90;;;;;;6119058;28;89080;-66
2022/09/14 11:45:19;;;;;;;6.32;5.80;;;22.20;99.90;;;;;;6133786;28;89115;-66
2022/09/14 11:48:28;;;;;;;5.97;5.47;;;22.20;99.90;;;;;;6119360;28;88207;-65
2022/09/14 11:51:36;;;;;;;6.13;5.63;;;22.20;99.90;;;;;;6120054;28;89166;-65
2022/09/14 11:54:40;;;;;;;5.63;5.13;;;22.20;99.90;;;;;;6118904;28;89032;-66
2022/09/14 11:57:45;;;;;;;6.15;5.55;;;22.20;99.90;;;;;;6130331;28;90124;-65
2022/09/14 12:01:20;;;;;;;6.18;5.60;;;22.20;99.90;;;;;;6131396;28;89657;-65
2022/09/14 12:04:23;;;;;;;6.05;5.53;;;22.20;99.90;;;;;;6131217;28;89409;-65
2022/09/14 12:07:58;;;;;;;5.90;5.40;;;22.20;99.90;;;;;;6131029;28;89051;-65
2022/09/14 12:11:04;;;;;;;6.13;5.63;;;22.20;99.90;;;;;;6131224;28;89076;-65
2022/09/14 12:14:28;;;;;;;6.10;5.60;;;22.20;99.90;;;;;;6124836;28;89072;-65
2022/09/14 12:17:35;;;;;;;5.72;5.22;;;22.20;99.90;;;;;;6129642;28;89265;-65
2022/09/14 12:20:43;;;;;;;6.13;5.53;;;22.20;99.90;;;;;;6131064;28;87179;-66
2022/09/14 12:23:50;;;;;;;5.82;5.32;;;22.20;99.90;;;;;;6119576;28;89113;-66
2022/09/14 12:26:52;;;;;;;6.28;5.68;;;22.20;99.90;;;;;;6129569;28;87979;-65
2022/09/14 12:29:54;;;;;;;5.95;5.45;;;22.20;99.90;;;;;;6115104;28;89995;-65
2022/09/14 12:32:58;;;;;;;6.03;5.47;;;22.20;99.90;;;;;;6115078;28;89050;-66
2022/09/14 12:36:00;;;;;;;6.35;5.75;;;22.20;99.90;;;;;;6129920;28;89230;-66
2022/09/14 12:39:19;;;;;;;5.55;5.05;;;22.20;99.90;;;;;;6131772;28;89108;-65
2022/09/14 12:42:30;;;;;;;5.85;5.25;;;22.20;99.90;;;;;;6130647;28;87975;-66
2022/09/14 12:45:49;;;;;;;5.55;5.05;;;22.20;99.90;;;;;;6129298;28;89508;-65
2022/09/14 12:48:59;;;;;;;5.38;4.85;;;22.20;99.90;;;;;;6129558;28;89070;-66
2022/09/14 12:52:33;;;;;;;6.13;5.05;;;22.20;99.90;;;;;;6124866;28;88504;-66
2022/09/14 12:55:53;;;;;;;6.25;5.43;;;22.30;99.90;;;;;;6116413;28;90766;-65
2022/09/14 12:59:06;;;;;;;5.18;4.68;;;22.20;99.90;;;;;;6133104;28;89140;-66
2022/09/14 13:02:33;;;;;;;5.68;5.18;;;22.20;99.90;;;;;;6133641;28;90450;-65
2022/09/14 13:05:36;;;;;;;5.22;4.78;;;22.30;99.90;;;;;;6117312;28;89513;-65
2022/09/14 13:08:39;;;;;;;5.18;4.78;;;22.20;99.90;;;;;;6127879;28;89191;-66
2022/09/14 13:11:42;;;;;;;5.80;5.30;;;22.20;99.90;;;;;;6135576;28;89104;-66
2022/09/14 13:14:48;;;;;;;5.40;4.90;;;22.20;99.90;;;;;;6135420;28;89097;-65
2022/09/14 13:18:02;;;;;;;5.25;4.75;;;22.20;99.90;;;;;;6124227;28;89102;-65
2022/09/14 13:21:18;;;;;;;5.40;4.90;;;22.20;99.90;;;;;;6124597;28;89180;-65
2022/09/14 13:24:24;;;;;;;5.07;4.65;;;22.20;99.90;;;;;;6121984;28;88365;-65
2022/09/14 13:27:29;;;;;;;5.07;4.68;;;22.30;99.90;;;;;;6128784;28;87537;-66
2022/09/14 13:30:32;;;;;;;5.18;4.78;;;22.20;99.90;;;;;;6130032;28;89385;-65
2022/09/14 13:33:34;;;;;;;5.25;4.75;;;22.20;99.90;;;;;;6134057;28;90415;-66
2022/09/14 13:36:43;;;;;;;5.78;5.25;;;22.30;99.90;;;;;;6134486;28;89481;-65
2022/09/14 13:39:51;;;;;;;5.20;4.70;;;22.30;99.90;;;;;;6134977;28;89075;-65
2022/09/14 13:42:53;;;;;;;5.72;5.13;;;22.30;99.90;;;;;;6135023;28;89106;-65
2022/09/14 13:45:56;;;;;;;5.05;4.65;;;22.20;99.90;;;;;;6134751;28;89050;-66
2022/09/14 13:48:58;;;;;;;5.32;4.82;;;22.30;99.90;;;;;;6135379;28;89126;-66
2022/09/14 13:52:31;;;;;;;5.22;4.72;;;22.20;99.90;;;;;;6134394;28;89128;-66
2022/09/14 13:55:44;;;;;;;5.25;4.75;;;22.30;99.90;;;;;;6125087;28;88338;-66
2022/09/14 13:58:48;;;;;;;5.47;4.90;;;22.30;99.90;;;;;;6134102;28;89084;-66
2022/09/14 14:01:54;;;;;;;5.20;4.70;;;22.30;99.90;;;;;;6134902;28;89063;-65
2022/09/14 14:04:56;;;;;;;4.80;4.40;;;22.30;99.90;;;;;;6133298;28;90018;-66
2022/09/14 14:08:01;;;;;;;4.65;4.25;;;22.30;99.90;;;;;;6126967;28;89071;-66
2022/09/14 14:11:06;;;;;;;4.80;4.40;;;22.30;99.90;;;;;;6123619;28;89157;-66
2022/09/14 14:14:21;;;;;;;5.38;4.88;;;22.30;99.90;;;;;;6128189;28;89103;-66
2022/09/14 14:17:33;;;;;;;5.05;4.65;;;22.30;99.90;;;;;;6134577;28;89101;-66
2022/09/14 14:20:36;;;;;;;5.13;4.70;;;22.30;99.90;;;;;;6134009;28;89121;-66
2022/09/14 14:23:41;;;;;;;6.35;5.03;;;22.30;99.90;;;;;;6133873;28;89250;-65
2022/09/14 14:26:48;;;;;;;5.35;4.85;;;22.30;99.90;;;;;;6133152;28;88348;-66
2022/09/14 14:29:52;;;;;;;5.00;4.55;;;22.20;99.90;;;;;;6134886;28;89075;-65
2022/09/14 14:32:55;;;;;;;5.45;4.95;;;22.30;99.90;;;;;;6134704;28;89178;-66
2022/09/14 14:35:57;;;;;;;5.80;5.30;;;22.30;99.90;;;;;;6131872;28;90028;-66
2022/09/14 14:39:00;;;;;;;5.32;4.88;;;22.30;99.90;;;;;;6124240;28;88027;-66
2022/09/14 14:42:03;;;;;;;5.45;4.95;;;22.30;99.90;;;;;;6133263;28;89079;-66
2022/09/14 14:45:07;;;;;;;5.85;5.25;;;22.30;99.90;;;;;;6133174;28;89868;-66
2022/09/14 14:48:10;;;;;;;5.35;4.95;;;22.30;99.90;;;;;;6125367;28;89276;-66
2022/09/14 14:51:14;;;;;;;5.50;5.00;;;22.30;99.90;;;;;;6122744;28;89128;-66
2022/09/14 14:54:17;;;;;;;6.25;5.65;;;22.30;99.90;;;;;;6130018;28;89260;-66
2022/09/14 14:57:19;;;;;;;6.28;5.68;;;22.30;99.90;;;;;;6111975;28;88347;-66
2022/09/14 15:00:24;;;;;;;5.70;5.20;;;22.30;99.90;;;;;;6134104;28;89379;-66
2022/09/14 15:03:25;;;;;;;6.13;5.45;;;22.30;99.90;;;;;;6120063;28;89044;-66
2022/09/14 15:06:28;;;;;;;5.50;5.00;;;22.30;99.90;;;;;;6120250;28;90996;-66
2022/09/14 15:09:31;;;;;;;5.72;5.18;;;22.30;99.90;;;;;;6133167;28;89194;-66
2022/09/14 15:12:34;;;;;;;5.13;4.70;;;22.20;99.90;;;;;;6132467;28;89118;-66
2022/09/14 15:15:36;;;;;;;5.32;4.85;;;22.30;99.90;;;;;;6132338;28;89406;-66
2022/09/14 15:18:38;;;;;;;5.45;4.95;;;22.30;99.90;;;;;;6131716;28;89169;-65
2022/09/14 15:21:41;;;;;;;5.50;5.00;;;22.30;99.90;;;;;;6133458;28;88779;-65
2022/09/14 15:24:45;;;;;;;5.43;4.93;;;22.30;99.90;;;;;;6126166;28;89169;-65
2022/09/14 15:27:48;;;;;;;5.40;4.90;;;22.30;99.90;;;;;;6131411;28;88331;-66
2022/09/14 15:30:50;;;;;;;5.47;4.95;;;22.30;99.90;;;;;;6131163;28;89180;-66
2022/09/14 15:33:52;;;;;;;5.75;5.25;;;22.30;99.90;;;;;;6122754;28;88818;-66
2022/09/14 15:36:56;;;;;;;5.72;5.22;;;22.30;99.90;;;;;;6121249;28;90020;-66
2022/09/14 15:39:59;;;;;;;5.63;5.10;;;22.30;99.90;;;;;;6120852;28;89425;-65
2022/09/14 15:43:01;;;;;;;5.38;4.97;;;22.30;99.90;;;;;;6110993;28;89145;-65
2022/09/14 15:46:03;;;;;;;5.43;4.95;;;22.30;99.90;;;;;;6128599;28;89149;-65
2022/09/14 15:49:07;;;;;;;5.97;5.47;;;22.30;99.90;;;;;;6120413;28;89193;-65
2022/09/14 15:52:10;;;;;;;5.53;5.03;;;22.30;99.90;;;;;;6129224;28;89075;-66
2022/09/14 15:55:14;;;;;;;5.90;5.40;;;22.30;99.90;;;;;;6109608;28;89437;-66
2022/09/14 15:58:16;;;;;;;5.82;5.32;;;22.30;99.90;;;;;;6131813;28;87142;-66